createdAt,value
2018-09-18T00:01:15.042Z,15.80
2018-09-18T00:03:42.902Z,15.80
2018-09-18T00:06:11.884Z,15.60
2018-09-18T00:08:39.731Z,15.60
2018-09-18T00:11:07.558Z,15.70
2018-09-18T00:13:35.465Z,15.60
2018-09-18T00:16:03.469Z,15.50
2018-09-18T00:18:31.611Z,15.50
2018-09-18T00:20:59.622Z,15.60
2018-09-18T00:23:27.611Z,15.60
2018-09-18T00:25:55.393Z,15.60
2018-09-18T00:28:23.208Z,15.60
2018-09-18T00:30:51.999Z,15.60
2018-09-18T00:33:19.839Z,15.60
2018-09-18T00:35:47.610Z,15.50
2018-09-18T00:38:15.400Z,15.50
2018-09-18T00:40:43.140Z,15.40
2018-09-18T00:43:10.920Z,15.30
2018-09-18T00:45:38.706Z,15.00
2018-09-18T00:48:06.468Z,14.90
2018-09-18T00:51:17.706Z,14.80
2018-09-18T00:53:56.375Z,14.70
2018-09-18T00:56:24.128Z,14.70
2018-09-18T00:58:51.869Z,14.50
2018-09-18T01:01:19.740Z,14.60
2018-09-18T01:03:47.533Z,14.70
2018-09-18T01:06:15.293Z,14.90
2018-09-18T01:08:43.026Z,15.00
2018-09-18T01:11:10.856Z,15.10
2018-09-18T01:13:38.653Z,15.30
2018-09-18T01:16:06.483Z,15.50
2018-09-18T01:18:41.208Z,15.60
2018-09-18T01:21:10.451Z,15.70
2018-09-18T01:23:39.616Z,15.80
2018-09-18T01:26:07.541Z,15.90
2018-09-18T01:28:35.953Z,16.00
2018-09-18T01:31:03.977Z,16.00
2018-09-18T01:33:31.901Z,16.00
2018-09-18T01:35:59.704Z,16.00
2018-09-18T01:38:27.515Z,15.90
2018-09-18T01:40:55.402Z,16.00
2018-09-18T01:43:24.644Z,16.00
2018-09-18T01:45:53.201Z,16.00
2018-09-18T01:48:21.683Z,16.10
2018-09-18T01:50:49.523Z,16.20
2018-09-18T01:53:17.922Z,16.20
2018-09-18T01:55:46.395Z,16.20
2018-09-18T02:01:07.269Z,16.10
2018-09-18T02:03:35.117Z,16.20
2018-09-18T02:06:02.965Z,16.20
2018-09-18T02:08:30.825Z,16.30
2018-09-18T02:10:58.664Z,16.40
2018-09-18T02:13:26.504Z,16.40
2018-09-18T02:15:55.352Z,16.40
2018-09-18T02:18:23.160Z,16.40
2018-09-18T02:20:51.022Z,16.40
2018-09-18T02:23:18.889Z,16.40
2018-09-18T02:28:27.689Z,16.40
2018-09-18T02:30:57.478Z,16.30
2018-09-18T02:33:25.233Z,16.30
2018-09-18T02:35:53.027Z,16.30
2018-09-18T02:38:20.842Z,16.30
2018-09-18T02:40:48.649Z,16.40
2018-09-18T02:43:16.426Z,16.40
2018-09-18T02:45:44.193Z,16.40
2018-09-18T02:48:11.964Z,16.50
2018-09-18T02:50:39.733Z,16.50
2018-09-18T02:53:07.510Z,16.50
2018-09-18T02:55:35.287Z,16.50
2018-09-18T02:58:03.133Z,16.50
2018-09-18T03:00:30.941Z,16.50
2018-09-18T03:02:59.686Z,16.50
2018-09-18T03:05:27.446Z,16.50
2018-09-18T03:07:56.242Z,16.60
2018-09-18T03:10:50.732Z,16.60
2018-09-18T03:13:18.575Z,16.60
2018-09-18T03:15:46.402Z,16.60
2018-09-18T03:18:14.197Z,16.60
2018-09-18T03:20:41.962Z,16.70
2018-09-18T03:23:09.752Z,16.70
2018-09-18T03:25:37.530Z,16.70
2018-09-18T03:28:09.027Z,16.60
2018-09-18T03:30:38.997Z,16.60
2018-09-18T03:33:07.314Z,16.70
2018-09-18T03:35:35.235Z,16.70
2018-09-18T03:38:03.085Z,16.70
2018-09-18T03:40:30.931Z,16.70
2018-09-18T03:42:58.713Z,16.70
2018-09-18T03:45:26.513Z,16.70
2018-09-18T03:47:54.337Z,16.70
2018-09-18T03:50:22.172Z,16.70
2018-09-18T03:52:50.010Z,16.70
2018-09-18T03:55:17.867Z,16.80
2018-09-18T03:57:45.735Z,16.80
2018-09-18T04:00:13.591Z,16.80
2018-09-18T04:02:41.432Z,16.90
2018-09-18T04:05:09.241Z,16.90
2018-09-18T04:07:37.014Z,16.80
2018-09-18T04:10:05.502Z,16.80
2018-09-18T04:12:34.473Z,16.80
2018-09-18T04:15:02.769Z,16.70
2018-09-18T04:17:31.747Z,16.80
2018-09-18T04:19:59.760Z,16.80
2018-09-18T04:22:27.667Z,16.90
2018-09-18T04:24:55.580Z,16.80
2018-09-18T04:27:23.466Z,16.70
2018-09-18T04:29:51.339Z,16.60
2018-09-18T04:32:19.250Z,16.60
2018-09-18T04:34:47.140Z,16.60
2018-09-18T04:37:15.082Z,16.50
2018-09-18T04:39:43.012Z,16.60
2018-09-18T04:42:10.877Z,16.70
2018-09-18T04:44:38.874Z,16.70
2018-09-18T04:47:06.796Z,16.60
2018-09-18T04:49:34.889Z,16.60
2018-09-18T04:52:02.776Z,16.50
2018-09-18T04:54:30.695Z,16.40
2018-09-18T04:56:59.634Z,16.50
2018-09-18T04:59:27.622Z,16.50
2018-09-18T05:01:55.666Z,16.50
2018-09-18T05:04:23.841Z,16.50
2018-09-18T05:06:51.763Z,16.50
2018-09-18T05:12:27.273Z,16.50
2018-09-18T05:14:55.098Z,16.40
2018-09-18T05:17:22.938Z,16.30
2018-09-18T05:19:50.761Z,16.40
2018-09-18T05:22:18.565Z,16.50
2018-09-18T05:24:46.406Z,16.50
2018-09-18T05:27:14.238Z,16.50
2018-09-18T05:29:42.062Z,16.60
2018-09-18T05:32:10.852Z,16.70
2018-09-18T05:34:38.653Z,17.00
2018-09-18T05:37:06.448Z,17.10
2018-09-18T05:39:34.346Z,17.20
2018-09-18T05:42:02.559Z,17.40
2018-09-18T05:45:10.422Z,17.50
2018-09-18T05:47:38.236Z,17.50
2018-09-18T05:50:06.080Z,17.60
2018-09-18T05:52:33.794Z,17.70
2018-09-18T05:55:01.587Z,17.70
2018-09-18T05:57:29.336Z,17.70
2018-09-18T05:59:57.158Z,17.70
2018-09-18T06:04:52.520Z,18.00
2018-09-18T06:07:20.236Z,18.20
2018-09-18T06:09:48.998Z,18.30
2018-09-18T06:12:16.767Z,18.30
2018-09-18T06:14:44.629Z,18.40
2018-09-18T06:17:12.423Z,18.40
2018-09-18T06:19:40.187Z,18.50
2018-09-18T06:22:08.087Z,18.70
2018-09-18T06:27:24.546Z,18.80
2018-09-18T06:29:52.532Z,18.90
2018-09-18T06:32:20.480Z,19.20
2018-09-18T06:34:48.467Z,19.20
2018-09-18T06:37:16.379Z,19.30
2018-09-18T06:39:46.300Z,19.30
2018-09-18T06:42:14.296Z,19.40
2018-09-18T06:44:42.276Z,19.60
2018-09-18T06:47:10.189Z,19.60
2018-09-18T06:52:06.062Z,19.80
2018-09-18T06:54:35.083Z,19.90
2018-09-18T06:57:02.888Z,20.00
2018-09-18T06:59:31.903Z,20.10
2018-09-18T07:01:59.859Z,20.20
2018-09-18T07:04:27.770Z,20.30
2018-09-18T07:06:55.710Z,20.30
2018-09-18T07:09:23.755Z,20.40
2018-09-18T07:11:51.677Z,20.50
2018-09-18T07:14:19.623Z,20.50
2018-09-18T07:16:47.618Z,20.60
2018-09-18T07:19:17.880Z,20.70
2018-09-18T07:21:46.320Z,20.70
2018-09-18T07:24:14.393Z,20.80
2018-09-18T07:26:42.387Z,20.80
2018-09-18T07:29:10.412Z,20.90
2018-09-18T07:38:06.504Z,21.40
2018-09-18T07:40:34.309Z,21.50
2018-09-18T07:43:02.077Z,21.70
2018-09-18T07:45:29.876Z,21.90
2018-09-18T07:47:57.663Z,21.70
2018-09-18T07:50:25.475Z,21.90
2018-09-18T07:52:53.298Z,21.90
2018-09-18T07:55:21.106Z,21.90
2018-09-18T07:57:48.855Z,22.10
2018-09-18T08:00:18.665Z,22.20
2018-09-18T08:02:46.486Z,22.20
2018-09-18T08:05:14.257Z,22.20
2018-09-18T08:07:42.034Z,22.40
2018-09-18T08:10:09.884Z,22.60
2018-09-18T08:12:38.726Z,22.70
2018-09-18T08:15:06.664Z,22.70
2018-09-18T08:17:34.480Z,22.50
2018-09-18T08:20:04.392Z,22.30
2018-09-18T08:22:32.216Z,22.50
2018-09-18T08:25:00.037Z,22.80
2018-09-18T08:27:27.817Z,22.90
2018-09-18T08:29:55.595Z,22.80
2018-09-18T08:32:23.438Z,22.70
2018-09-18T08:34:51.225Z,22.60
2018-09-18T08:37:19.000Z,22.70
2018-09-18T08:39:47.944Z,23.00
2018-09-18T08:42:27.034Z,23.10
2018-09-18T08:44:54.950Z,23.10
2018-09-18T08:47:45.347Z,23.00
2018-09-18T08:50:47.923Z,23.10
2018-09-18T08:53:15.918Z,23.40
2018-09-18T08:55:43.753Z,23.40
2018-09-18T08:58:11.549Z,23.30
2018-09-18T09:00:39.370Z,23.20
2018-09-18T09:03:07.289Z,23.00
2018-09-18T09:05:35.185Z,23.00
2018-09-18T09:08:03.094Z,23.00
2018-09-18T09:10:30.851Z,23.30
2018-09-18T09:12:58.638Z,23.60
2018-09-18T09:15:26.466Z,23.70
2018-09-18T09:17:54.325Z,23.90
2018-09-18T09:20:22.131Z,24.00
2018-09-18T09:22:50.062Z,23.90
2018-09-18T09:25:17.841Z,23.90
2018-09-18T09:27:45.714Z,24.10
2018-09-18T09:30:14.517Z,24.20
2018-09-18T09:32:42.352Z,24.00
2018-09-18T09:35:10.201Z,24.00
2018-09-18T09:37:37.988Z,24.20
2018-09-18T09:40:06.422Z,24.20
2018-09-18T09:42:34.239Z,24.30
2018-09-18T09:45:02.098Z,24.30
2018-09-18T09:47:29.956Z,24.60
2018-09-18T09:49:57.827Z,24.40
2018-09-18T09:52:25.673Z,24.30
2018-09-18T09:54:54.498Z,24.50
2018-09-18T09:57:22.356Z,24.80
2018-09-18T09:59:50.222Z,25.30
2018-09-18T10:02:22.573Z,25.70
2018-09-18T10:04:50.442Z,25.90
2018-09-18T10:07:34.910Z,25.70
2018-09-18T10:10:14.457Z,25.70
2018-09-18T10:12:42.272Z,25.60
2018-09-18T10:15:10.355Z,25.30
2018-09-18T10:17:38.535Z,25.40
2018-09-18T10:20:06.903Z,25.40
2018-09-18T10:22:34.793Z,25.80
2018-09-18T10:25:02.856Z,26.10
2018-09-18T10:27:30.626Z,26.40
2018-09-18T10:29:58.493Z,26.00
2018-09-18T10:32:26.316Z,26.00
2018-09-18T10:34:54.049Z,26.00
2018-09-18T10:37:21.839Z,25.70
2018-09-18T10:39:49.620Z,25.60
2018-09-18T10:42:18.426Z,25.40
2018-09-18T10:44:46.202Z,25.00
2018-09-18T10:47:13.962Z,25.00
2018-09-18T10:49:41.749Z,25.20
2018-09-18T10:52:09.514Z,25.20
2018-09-18T10:54:37.270Z,25.10
2018-09-18T10:57:05.075Z,25.30
2018-09-18T10:59:32.847Z,25.70
2018-09-18T11:02:01.740Z,25.80
2018-09-18T11:04:29.424Z,25.80
2018-09-18T11:06:57.273Z,25.70
2018-09-18T11:09:25.620Z,25.60
2018-09-18T11:11:53.436Z,25.60
2018-09-18T11:14:21.192Z,25.80
2018-09-18T11:16:49.004Z,25.40
2018-09-18T11:19:16.803Z,25.50
2018-09-18T11:21:44.677Z,25.20
2018-09-18T11:24:12.460Z,25.30
2018-09-18T11:26:40.242Z,25.40
2018-09-18T11:29:08.075Z,25.90
2018-09-18T11:31:36.859Z,26.40
2018-09-18T11:34:04.580Z,26.70
2018-09-18T11:36:32.350Z,26.60
2018-09-18T11:39:00.465Z,26.30
2018-09-18T11:41:30.601Z,26.00
2018-09-18T11:44:15.421Z,26.60
2018-09-18T11:47:17.263Z,26.60
2018-09-18T11:49:45.279Z,26.50
2018-09-18T11:52:13.044Z,26.60
2018-09-18T11:54:40.791Z,26.30
2018-09-18T11:57:08.559Z,26.00
2018-09-18T11:59:36.345Z,26.40
2018-09-18T12:02:04.142Z,26.60
2018-09-18T12:04:32.878Z,26.80
2018-09-18T12:07:00.660Z,26.70
2018-09-18T12:09:28.460Z,26.80
2018-09-18T12:11:56.218Z,26.60
2018-09-18T12:14:24.195Z,26.60
2018-09-18T12:16:52.035Z,26.30
2018-09-18T12:19:19.755Z,26.50
2018-09-18T12:21:48.555Z,26.30
2018-09-18T12:24:16.325Z,26.00
2018-09-18T12:26:44.082Z,25.90
2018-09-18T12:29:11.855Z,26.40
2018-09-18T12:31:39.624Z,26.50
2018-09-18T12:34:07.360Z,26.70
2018-09-18T12:36:35.112Z,27.00
2018-09-18T12:39:04.095Z,27.00
2018-09-18T12:41:31.962Z,26.80
2018-09-18T12:43:59.627Z,26.70
2018-09-18T12:46:27.368Z,26.50
2018-09-18T12:48:55.165Z,26.80
2018-09-18T12:51:22.878Z,26.90
2018-09-18T12:53:50.721Z,27.10
2018-09-18T12:56:18.348Z,27.20
2018-09-18T12:58:46.106Z,27.30
2018-09-18T13:01:14.880Z,27.30
2018-09-18T13:03:42.608Z,27.10
2018-09-18T13:06:10.474Z,27.50
2018-09-18T13:08:38.176Z,27.50
2018-09-18T13:11:06.045Z,27.50
2018-09-18T13:13:33.850Z,27.20
2018-09-18T13:16:01.583Z,27.00
2018-09-18T13:18:30.326Z,27.00
2018-09-18T13:20:58.063Z,27.20
2018-09-18T13:23:25.809Z,27.10
2018-09-18T13:25:53.948Z,26.80
2018-09-18T13:28:21.657Z,26.50
2018-09-18T13:30:49.396Z,26.50
2018-09-18T13:33:17.122Z,26.30
2018-09-18T13:35:44.865Z,26.70
2018-09-18T13:38:12.655Z,26.50
2018-09-18T13:40:40.370Z,26.60
2018-09-18T13:43:08.110Z,26.50
2018-09-18T13:45:35.882Z,26.50
2018-09-18T13:48:03.702Z,26.20
2018-09-18T13:50:35.546Z,26.30
2018-09-18T13:53:45.224Z,26.40
2018-09-18T13:56:13.103Z,26.60
2018-09-18T13:58:40.772Z,26.90
2018-09-18T14:01:08.667Z,26.70
2018-09-18T14:03:36.312Z,26.80
2018-09-18T14:06:04.149Z,26.90
2018-09-18T14:08:31.889Z,27.00
2018-09-18T14:10:59.616Z,27.00
2018-09-18T14:13:27.396Z,26.80
2018-09-18T14:15:55.204Z,26.90
2018-09-18T14:18:22.979Z,26.90
2018-09-18T14:20:50.743Z,26.90
2018-09-18T14:23:18.532Z,26.90
2018-09-18T14:25:46.342Z,27.00
2018-09-18T14:28:14.090Z,27.00
2018-09-18T14:30:41.857Z,26.90
2018-09-18T14:33:09.857Z,26.80
2018-09-18T14:35:37.624Z,26.60
2018-09-18T14:38:05.486Z,26.50
2018-09-18T14:40:33.292Z,26.20
2018-09-18T14:43:00.939Z,26.30
2018-09-18T14:45:28.672Z,26.00
2018-09-18T14:47:58.423Z,26.00
2018-09-18T14:50:26.149Z,26.00
2018-09-18T14:52:53.929Z,25.80
2018-09-18T14:55:21.699Z,25.90
2018-09-18T14:57:57.353Z,26.00
2018-09-18T15:03:44.421Z,26.10
2018-09-18T15:06:12.231Z,26.10
2018-09-18T15:08:40.031Z,25.90
2018-09-18T15:11:07.793Z,26.00
2018-09-18T15:13:35.573Z,25.70
2018-09-18T15:16:03.362Z,25.60
2018-09-18T15:18:31.126Z,25.60
2018-09-18T15:20:58.892Z,25.30
2018-09-18T15:23:26.698Z,25.30
2018-09-18T15:25:54.456Z,25.20
2018-09-18T15:28:22.290Z,24.80
2018-09-18T15:30:50.103Z,24.30
2018-09-18T15:33:17.852Z,23.80
2018-09-18T15:35:49.557Z,23.60
2018-09-18T15:38:17.323Z,23.90
2018-09-18T15:43:42.198Z,24.10
2018-09-18T15:46:25.332Z,24.10
2018-09-18T15:48:53.091Z,24.80
2018-09-18T15:51:20.819Z,24.80
2018-09-18T15:53:49.687Z,24.30
2018-09-18T15:56:17.470Z,23.80
2018-09-18T15:58:45.223Z,23.50
2018-09-18T16:01:12.983Z,23.30
2018-09-18T16:04:23.723Z,23.10
2018-09-18T16:06:51.790Z,22.90
2018-09-18T16:09:19.600Z,22.70
2018-09-18T16:11:47.417Z,22.50
2018-09-18T16:16:56.378Z,22.10
2018-09-18T16:19:59.524Z,21.90
2018-09-18T16:22:27.358Z,21.70
2018-09-18T16:24:55.170Z,21.50
2018-09-18T16:27:23.007Z,21.40
2018-09-18T16:29:51.759Z,21.20
2018-09-18T16:32:19.507Z,21.10
2018-09-18T16:34:47.377Z,21.00
2018-09-18T16:37:15.197Z,20.90
2018-09-18T16:39:43.190Z,20.80
2018-09-18T16:42:12.384Z,20.80
2018-09-18T16:44:41.491Z,20.80
2018-09-18T16:47:09.824Z,20.70
2018-09-18T16:49:38.020Z,20.70
2018-09-18T16:54:34.794Z,20.70
2018-09-18T16:57:02.683Z,20.70
2018-09-18T16:59:30.953Z,20.70
2018-09-18T17:01:59.103Z,20.70
2018-09-18T17:04:27.223Z,20.70
2018-09-18T17:06:55.422Z,20.70
2018-09-18T17:09:23.703Z,20.70
2018-09-18T17:11:53.160Z,20.60
2018-09-18T17:14:21.244Z,20.60
2018-09-18T17:16:49.407Z,20.60
2018-09-18T17:19:17.454Z,20.50
2018-09-18T17:21:45.434Z,20.40
2018-09-18T17:24:13.537Z,20.40
2018-09-18T17:26:41.466Z,20.40
2018-09-18T17:29:09.474Z,20.40
2018-09-18T17:31:37.647Z,20.30
2018-09-18T17:34:07.466Z,20.40
2018-09-18T17:36:35.423Z,20.40
2018-09-18T17:41:43.377Z,20.10
2018-09-18T17:44:11.188Z,20.10
2018-09-18T17:46:39.121Z,20.00
2018-09-18T17:49:08.089Z,19.90
2018-09-18T17:51:35.886Z,19.80
2018-09-18T17:54:03.746Z,19.80
2018-09-18T17:56:31.512Z,19.70
2018-09-18T17:58:59.277Z,19.70
2018-09-18T18:01:27.059Z,19.60
2018-09-18T18:03:54.856Z,19.60
2018-09-18T18:06:22.656Z,19.50
2018-09-18T18:09:30.560Z,19.50
2018-09-18T18:11:58.420Z,19.50
2018-09-18T18:14:26.220Z,19.40
2018-09-18T18:16:53.969Z,19.30
2018-09-18T18:19:21.741Z,19.20
2018-09-18T18:21:49.767Z,19.20
2018-09-18T18:24:17.559Z,19.00
2018-09-18T18:27:03.037Z,18.90
2018-09-18T18:29:31.076Z,18.80
2018-09-18T18:31:58.875Z,18.70
2018-09-18T18:35:01.872Z,18.70
2018-09-18T18:37:31.361Z,18.60
2018-09-18T18:39:59.530Z,18.50
2018-09-18T18:42:28.346Z,18.50
2018-09-18T18:44:56.511Z,18.50
2018-09-18T18:47:24.630Z,18.40
2018-09-18T18:49:52.841Z,18.30
2018-09-18T18:52:21.039Z,18.20
2018-09-18T18:54:49.256Z,18.00
2018-09-18T18:57:17.508Z,17.90
2018-09-18T18:59:45.692Z,17.80
2018-09-18T19:02:17.478Z,17.80
2018-09-18T19:04:45.667Z,17.70
2018-09-18T19:07:14.675Z,17.60
2018-09-18T19:09:42.804Z,17.50
2018-09-18T19:12:10.983Z,17.40
2018-09-18T19:14:39.208Z,17.30
2018-09-18T19:17:07.404Z,17.10
2018-09-18T19:19:35.560Z,17.00
2018-09-18T19:22:03.887Z,16.90
2018-09-18T19:24:32.095Z,16.80
2018-09-18T19:27:01.227Z,16.70
2018-09-18T19:29:29.329Z,16.60
2018-09-18T19:31:57.486Z,16.60
2018-09-18T19:34:25.638Z,16.50
2018-09-18T19:36:53.810Z,16.40
2018-09-18T19:39:21.999Z,16.40
2018-09-18T19:41:50.144Z,16.30
2018-09-18T19:44:18.254Z,16.40
2018-09-18T19:46:46.925Z,16.40
2018-09-18T19:49:15.148Z,16.40
2018-09-18T19:51:43.515Z,16.40
2018-09-18T19:54:11.648Z,16.50
2018-09-18T19:56:39.873Z,16.50
2018-09-18T19:59:08.043Z,16.40
2018-09-18T20:01:36.183Z,16.50
2018-09-18T20:04:04.366Z,16.40
2018-09-18T20:06:32.584Z,16.20
2018-09-18T20:09:00.728Z,16.10
2018-09-18T20:11:28.889Z,16.00
2018-09-18T20:13:57.080Z,15.90
2018-09-18T20:16:25.271Z,15.90
2018-09-18T20:18:53.448Z,15.80
2018-09-18T20:21:21.592Z,15.80
2018-09-18T20:23:49.731Z,15.70
2018-09-18T20:26:17.899Z,15.70
2018-09-18T20:28:46.155Z,15.60
2018-09-18T20:31:14.354Z,15.70
2018-09-18T20:33:42.535Z,15.70
2018-09-18T20:36:10.752Z,15.60
2018-09-18T20:38:38.814Z,15.40
2018-09-18T20:41:07.058Z,15.30
2018-09-18T20:43:35.169Z,15.00
2018-09-18T20:46:03.300Z,14.80
2018-09-18T20:48:31.657Z,14.80
2018-09-18T20:50:59.755Z,14.90
2018-09-18T20:53:27.891Z,15.10
2018-09-18T20:55:57.057Z,15.30
2018-09-18T20:58:25.176Z,15.20
2018-09-18T21:00:53.327Z,15.10
2018-09-18T21:03:21.480Z,14.90
2018-09-18T21:05:49.592Z,14.70
2018-09-18T21:08:18.768Z,14.60
2018-09-18T21:10:46.854Z,14.50
2018-09-18T21:13:15.036Z,14.40
2018-09-18T21:15:43.145Z,14.40
2018-09-18T21:18:13.686Z,14.40
2018-09-18T21:20:42.397Z,14.50
2018-09-18T21:23:10.518Z,14.60
2018-09-18T21:26:14.249Z,14.70
2018-09-18T21:28:42.379Z,14.60
2018-09-18T21:31:10.478Z,14.60
2018-09-18T21:33:38.705Z,14.50
2018-09-18T21:36:07.043Z,14.40
2018-09-18T21:38:35.270Z,14.10
2018-09-18T21:41:03.447Z,14.00
2018-09-18T21:43:32.009Z,13.80
2018-09-18T21:46:00.127Z,13.90
2018-09-18T21:48:28.337Z,14.00
2018-09-18T21:50:56.657Z,14.00
2018-09-18T21:53:25.039Z,13.90
2018-09-18T21:55:53.371Z,13.70
2018-09-18T21:58:21.781Z,13.60
2018-09-18T22:00:50.257Z,13.60
2018-09-18T22:03:18.576Z,13.60
2018-09-18T22:09:07.228Z,13.60
2018-09-18T22:11:35.064Z,13.60
2018-09-18T22:14:02.860Z,13.50
2018-09-18T22:16:32.630Z,13.40
2018-09-18T22:19:00.397Z,13.50
2018-09-18T22:21:28.163Z,13.30
2018-09-18T22:23:55.894Z,13.20
2018-09-18T22:26:24.657Z,13.30
2018-09-18T22:28:52.402Z,13.30
2018-09-18T22:31:20.174Z,13.20
2018-09-18T22:33:47.928Z,13.10
2018-09-18T22:36:17.709Z,13.00
2018-09-18T22:38:45.502Z,13.00
2018-09-18T22:41:13.240Z,12.90
2018-09-18T22:43:40.998Z,12.90
2018-09-18T22:46:08.768Z,13.00
2018-09-18T22:48:36.641Z,13.00
2018-09-18T22:51:04.420Z,13.10
2018-09-18T22:53:32.186Z,13.10
2018-09-18T22:55:59.934Z,13.00
2018-09-18T22:58:30.958Z,13.20
2018-09-18T23:00:58.701Z,13.50
2018-09-18T23:03:28.435Z,13.50
2018-09-18T23:05:56.258Z,13.60
2018-09-18T23:08:25.254Z,13.40
2018-09-18T23:10:53.050Z,13.30
2018-09-18T23:13:22.822Z,13.30
2018-09-18T23:15:50.635Z,13.30
2018-09-18T23:18:18.440Z,13.60
2018-09-18T23:20:46.199Z,13.80
2018-09-18T23:23:13.973Z,13.90
2018-09-18T23:25:41.759Z,13.70
2018-09-18T23:28:30.089Z,13.60
2018-09-18T23:30:57.929Z,13.60
2018-09-18T23:33:26.726Z,13.70
2018-09-18T23:35:54.496Z,13.60
2018-09-18T23:38:22.269Z,13.50
2018-09-18T23:40:50.007Z,13.40
2018-09-18T23:43:17.759Z,13.40
2018-09-18T23:45:45.508Z,13.20
2018-09-18T23:48:13.282Z,13.20
2018-09-18T23:50:41.004Z,13.10
2018-09-18T23:55:38.217Z,13.30
2018-09-18T23:58:06.182Z,13.20
